createdAt,value
2019-04-19T00:00:47.097Z,13.90
2019-04-19T00:03:20.316Z,13.90
2019-04-19T00:05:52.615Z,14.00
2019-04-19T00:08:36.897Z,13.90
2019-04-19T00:11:06.547Z,13.50
2019-04-19T00:13:23.807Z,13.40
2019-04-19T00:15:52.467Z,13.20
2019-04-19T00:18:21.745Z,13.30
2019-04-19T00:21:08.885Z,13.00
2019-04-19T00:23:29.676Z,12.90
2019-04-19T00:25:51.607Z,12.80
2019-04-19T00:28:31.308Z,12.80
2019-04-19T00:31:00.038Z,12.90
2019-04-19T00:33:28.484Z,13.10
2019-04-19T00:35:51.678Z,13.40
2019-04-19T00:38:40.620Z,13.50
2019-04-19T00:41:14.227Z,13.20
2019-04-19T00:43:44.724Z,13.50
2019-04-19T00:46:20.860Z,13.40
2019-04-19T00:48:47.485Z,13.40
2019-04-19T00:51:15.156Z,13.30
2019-04-19T00:53:40.977Z,13.20
2019-04-19T00:56:09.365Z,12.70
2019-04-19T00:58:34.725Z,12.90
2019-04-19T01:01:08.158Z,13.20
2019-04-19T01:03:39.236Z,13.00
2019-04-19T01:06:08.400Z,13.30
2019-04-19T01:08:35.675Z,13.30
2019-04-19T01:11:20.203Z,13.10
2019-04-19T01:13:50.825Z,12.90
2019-04-19T01:16:16.044Z,12.50
2019-04-19T01:18:45.502Z,12.60
2019-04-19T01:21:05.075Z,12.50
2019-04-19T01:23:40.803Z,12.10
2019-04-19T01:26:08.141Z,11.90
2019-04-19T01:28:35.222Z,12.30
2019-04-19T01:31:10.036Z,12.30
2019-04-19T01:33:39.002Z,12.20
2019-04-19T01:36:04.726Z,12.00
2019-04-19T01:38:40.863Z,12.20
2019-04-19T01:41:20.762Z,12.20
2019-04-19T01:43:50.887Z,12.00
2019-04-19T01:46:25.555Z,11.80
2019-04-19T01:48:56.088Z,11.80
2019-04-19T01:51:45.282Z,12.00
2019-04-19T01:54:12.536Z,12.20
2019-04-19T01:56:24.836Z,12.30
2019-04-19T01:58:58.549Z,12.10
2019-04-19T02:01:27.324Z,12.10
2019-04-19T02:03:54.409Z,12.10
2019-04-19T02:06:32.131Z,12.00
2019-04-19T02:08:57.772Z,11.80
2019-04-19T02:11:54.492Z,11.60
2019-04-19T02:14:21.158Z,11.80
2019-04-19T02:16:52.631Z,11.60
2019-04-19T02:19:21.816Z,11.90
2019-04-19T02:21:50.302Z,11.80
2019-04-19T02:24:21.650Z,11.70
2019-04-19T02:26:56.449Z,11.50
2019-04-19T02:29:21.922Z,11.40
2019-04-19T02:32:15.452Z,11.20
2019-04-19T02:37:15.756Z,11.30
2019-04-19T02:39:45.158Z,11.30
2019-04-19T02:42:23.939Z,11.20
2019-04-19T02:44:51.795Z,11.30
2019-04-19T02:47:30.652Z,11.20
2019-04-19T02:52:25.839Z,11.20
2019-04-19T02:54:53.435Z,11.30
2019-04-19T03:00:11.117Z,11.20
2019-04-19T03:02:44.063Z,11.30
2019-04-19T03:05:10.568Z,11.10
2019-04-19T03:07:11.313Z,11.00
2019-04-19T03:09:43.420Z,10.80
2019-04-19T03:12:32.087Z,10.70
2019-04-19T03:14:50.706Z,10.70
2019-04-19T03:17:33.204Z,10.90
2019-04-19T03:19:56.598Z,10.70
2019-04-19T03:22:46.967Z,10.50
2019-04-19T03:25:03.546Z,10.50
2019-04-19T03:27:17.884Z,10.60
2019-04-19T03:29:46.580Z,10.40
2019-04-19T03:37:32.695Z,10.20
2019-04-19T03:40:08.591Z,10.50
2019-04-19T03:42:40.530Z,10.50
2019-04-19T03:45:07.030Z,10.20
2019-04-19T03:47:45.613Z,10.20
2019-04-19T03:50:04.483Z,10.20
2019-04-19T03:52:37.418Z,10.20
2019-04-19T03:55:08.964Z,10.20
2019-04-19T03:57:31.252Z,10.20
2019-04-19T03:59:52.320Z,10.30
2019-04-19T04:02:24.490Z,10.10
2019-04-19T04:04:58.432Z,9.90
2019-04-19T04:07:25.777Z,9.70
2019-04-19T04:09:57.463Z,9.70
2019-04-19T04:12:38.056Z,9.80
2019-04-19T04:15:10.510Z,10.00
2019-04-19T04:17:28.952Z,9.90
2019-04-19T04:19:58.624Z,9.70
2019-04-19T04:22:33.066Z,9.50
2019-04-19T04:25:06.081Z,9.30
2019-04-19T04:27:39.931Z,9.30
2019-04-19T04:30:06.052Z,9.30
2019-04-19T04:32:43.052Z,9.30
2019-04-19T04:35:13.886Z,9.30
2019-04-19T04:37:44.731Z,9.20
2019-04-19T04:39:59.803Z,9.20
2019-04-19T04:42:35.664Z,9.40
2019-04-19T04:45:36.358Z,9.60
2019-04-19T04:48:10.224Z,9.40
2019-04-19T04:50:49.412Z,9.20
2019-04-19T04:52:56.049Z,9.20
2019-04-19T04:55:28.860Z,9.50
2019-04-19T04:58:01.015Z,9.50
2019-04-19T05:00:35.054Z,9.20
2019-04-19T05:03:09.366Z,9.20
2019-04-19T05:05:46.048Z,9.30
2019-04-19T05:08:19.943Z,9.40
2019-04-19T05:10:43.519Z,9.40
2019-04-19T05:13:19.584Z,9.30
2019-04-19T05:15:51.888Z,9.40
2019-04-19T05:18:21.260Z,9.40
2019-04-19T05:20:46.424Z,9.40
2019-04-19T05:23:14.258Z,9.40
2019-04-19T05:25:50.983Z,9.40
2019-04-19T05:28:16.668Z,9.60
2019-04-19T05:30:42.274Z,9.70
2019-04-19T05:33:10.502Z,9.80
2019-04-19T05:35:52.208Z,9.90
2019-04-19T05:38:30.438Z,10.10
2019-04-19T05:40:57.106Z,10.10
2019-04-19T05:43:51.646Z,10.20
2019-04-19T05:48:30.475Z,10.20
2019-04-19T05:51:13.996Z,10.30
2019-04-19T05:53:27.919Z,10.30
2019-04-19T05:55:48.318Z,10.20
2019-04-19T05:58:25.047Z,10.20
2019-04-19T06:00:58.379Z,10.20
2019-04-19T06:03:27.614Z,10.30
2019-04-19T06:06:14.413Z,10.40
2019-04-19T06:08:22.949Z,10.50
2019-04-19T06:10:53.438Z,10.50
2019-04-19T06:13:19.147Z,10.60
2019-04-19T06:16:06.955Z,10.70
2019-04-19T06:18:38.047Z,10.70
2019-04-19T06:21:17.144Z,10.80
2019-04-19T06:23:43.927Z,10.80
2019-04-19T06:26:46.493Z,10.80
2019-04-19T06:28:55.738Z,11.00
2019-04-19T06:31:19.527Z,11.10
2019-04-19T06:33:42.268Z,11.00
2019-04-19T06:35:59.523Z,11.10
2019-04-19T06:38:24.742Z,11.10
2019-04-19T06:45:28.116Z,11.20
2019-04-19T06:47:47.370Z,11.30
2019-04-19T06:50:08.862Z,11.40
2019-04-19T06:52:38.444Z,11.30
2019-04-19T06:55:14.230Z,11.50
2019-04-19T06:57:51.474Z,11.60
2019-04-19T07:00:20.431Z,11.60
2019-04-19T07:02:39.571Z,11.60
2019-04-19T07:05:22.767Z,11.70
2019-04-19T07:08:07.184Z,11.70
2019-04-19T07:10:38.313Z,11.90
2019-04-19T07:12:59.637Z,11.80
2019-04-19T07:15:39.903Z,11.90
2019-04-19T07:17:53.497Z,11.90
2019-04-19T07:24:18.364Z,11.90
2019-04-19T07:26:44.977Z,12.10
2019-04-19T07:28:53.600Z,12.30
2019-04-19T07:31:22.200Z,12.30
2019-04-19T07:34:06.353Z,12.30
2019-04-19T07:36:40.224Z,12.30
2019-04-19T07:39:08.466Z,12.30
2019-04-19T07:41:39.597Z,12.30
2019-04-19T07:44:21.190Z,12.50
2019-04-19T07:47:11.417Z,12.40
2019-04-19T07:49:29.334Z,12.40
2019-04-19T07:52:06.987Z,12.60
2019-04-19T07:54:30.805Z,12.60
2019-04-19T07:57:22.623Z,12.60
2019-04-19T07:59:54.724Z,12.70
2019-04-19T08:02:36.024Z,12.80
2019-04-19T08:05:01.314Z,12.90
2019-04-19T08:07:29.215Z,12.90
2019-04-19T08:09:59.890Z,13.00
2019-04-19T08:12:23.917Z,13.00
2019-04-19T08:15:02.952Z,13.10
2019-04-19T08:29:48.962Z,13.60
2019-04-19T08:32:11.126Z,13.80
2019-04-19T08:34:40.243Z,14.00
2019-04-19T08:37:19.143Z,14.00
2019-04-19T08:39:56.878Z,14.10
2019-04-19T08:42:30.928Z,14.00
2019-04-19T08:44:49.211Z,14.20
2019-04-19T08:47:23.009Z,14.30
2019-04-19T08:49:46.821Z,14.50
2019-04-19T08:52:23.000Z,14.70
2019-04-19T08:55:04.628Z,14.70
2019-04-19T08:57:19.761Z,14.70
2019-04-19T09:00:12.181Z,14.50
2019-04-19T09:02:36.709Z,14.60
2019-04-19T09:05:04.686Z,14.80
2019-04-19T09:10:26.074Z,15.10
2019-04-19T09:12:34.572Z,14.90
2019-04-19T09:15:08.834Z,14.80
2019-04-19T09:17:50.181Z,14.90
2019-04-19T09:22:35.862Z,15.30
2019-04-19T09:24:58.650Z,15.50
2019-04-19T09:27:46.118Z,15.60
2019-04-19T09:30:11.559Z,15.50
2019-04-19T09:32:27.287Z,15.50
2019-04-19T09:34:59.759Z,15.60
2019-04-19T09:37:39.964Z,15.70
2019-04-19T09:40:03.266Z,16.40
2019-04-19T09:42:37.916Z,16.30
2019-04-19T09:44:56.861Z,16.40
2019-04-19T09:47:23.054Z,16.30
2019-04-19T09:50:03.844Z,16.40
2019-04-19T09:52:44.421Z,16.50
2019-04-19T09:55:15.909Z,16.70
2019-04-19T09:57:38.568Z,16.70
2019-04-19T10:00:02.230Z,16.80
2019-04-19T10:02:28.883Z,16.90
2019-04-19T10:04:52.872Z,16.90
2019-04-19T10:07:21.330Z,17.40
2019-04-19T10:09:56.824Z,17.40
2019-04-19T10:12:19.902Z,17.40
2019-04-19T10:14:48.345Z,17.50
2019-04-19T10:17:24.802Z,17.50
2019-04-19T10:19:53.336Z,17.70
2019-04-19T10:22:22.910Z,17.70
2019-04-19T10:24:54.073Z,17.80
2019-04-19T10:27:29.379Z,17.90
2019-04-19T10:29:58.205Z,18.10
2019-04-19T10:32:38.555Z,18.10
2019-04-19T10:35:07.492Z,18.00
2019-04-19T10:37:35.916Z,18.30
2019-04-19T10:40:09.871Z,18.60
2019-04-19T10:42:38.996Z,18.60
2019-04-19T10:45:10.094Z,18.60
2019-04-19T10:47:39.865Z,18.60
2019-04-19T10:50:20.489Z,18.80
2019-04-19T10:52:39.449Z,18.70
2019-04-19T10:55:08.676Z,18.80
2019-04-19T10:57:37.327Z,18.90
2019-04-19T11:00:07.237Z,19.00
2019-04-19T11:02:36.680Z,19.20
2019-04-19T11:05:22.973Z,19.30
2019-04-19T11:07:51.659Z,19.50
2019-04-19T11:10:20.246Z,19.70
2019-04-19T11:12:50.212Z,19.50
2019-04-19T11:15:18.774Z,19.60
2019-04-19T11:18:01.573Z,19.60
2019-04-19T11:20:38.404Z,19.80
2019-04-19T11:23:00.326Z,19.60
2019-04-19T11:25:28.763Z,19.70
2019-04-19T11:27:57.943Z,19.90
2019-04-19T11:30:30.921Z,19.90
2019-04-19T11:32:59.348Z,19.80
2019-04-19T11:35:29.671Z,20.00
2019-04-19T11:37:58.109Z,20.40
2019-04-19T11:40:27.144Z,20.50
2019-04-19T11:43:49.573Z,20.40
2019-04-19T11:46:18.097Z,20.40
2019-04-19T11:48:47.772Z,20.60
2019-04-19T11:51:16.345Z,20.40
2019-04-19T11:53:46.657Z,20.60
2019-04-19T11:56:38.344Z,20.60
2019-04-19T11:59:04.661Z,20.60
2019-04-19T12:01:36.235Z,20.90
2019-04-19T12:05:21.084Z,21.00
2019-04-19T12:07:44.419Z,21.30
2019-04-19T12:10:14.464Z,21.30
2019-04-19T12:12:43.420Z,21.20
2019-04-19T12:15:13.926Z,21.40
2019-04-19T12:17:42.397Z,21.40
2019-04-19T12:20:37.547Z,21.70
2019-04-19T12:23:06.015Z,21.20
2019-04-19T12:25:35.604Z,21.50
2019-04-19T12:28:04.207Z,21.60
2019-04-19T12:30:33.602Z,22.00
2019-04-19T12:33:03.454Z,21.90
2019-04-19T12:35:32.075Z,21.90
2019-04-19T12:38:50.270Z,22.20
2019-04-19T12:41:19.772Z,21.80
2019-04-19T12:43:49.801Z,22.10
2019-04-19T12:46:19.096Z,22.00
2019-04-19T12:48:48.267Z,22.10
2019-04-19T12:51:16.798Z,22.40
2019-04-19T12:53:46.853Z,22.70
2019-04-19T12:56:15.920Z,22.70
2019-04-19T12:58:44.423Z,22.80
2019-04-19T13:01:14.982Z,22.30
2019-04-19T13:03:54.727Z,22.50
2019-04-19T13:06:37.903Z,22.90
2019-04-19T13:09:10.970Z,22.60
2019-04-19T13:11:40.772Z,22.70
2019-04-19T13:14:09.995Z,23.00
2019-04-19T13:16:38.540Z,22.90
2019-04-19T13:19:07.997Z,22.90
2019-04-19T13:21:36.742Z,23.00
2019-04-19T13:24:06.709Z,23.10
2019-04-19T13:26:35.599Z,23.30
2019-04-19T13:29:05.083Z,23.50
2019-04-19T13:31:34.672Z,23.60
2019-04-19T13:34:03.291Z,23.10
2019-04-19T13:36:47.536Z,23.00
2019-04-19T13:39:21.360Z,23.00
2019-04-19T13:41:52.612Z,22.90
2019-04-19T13:44:21.254Z,23.20
2019-04-19T13:46:50.698Z,23.40
2019-04-19T13:49:19.410Z,23.00
2019-04-19T13:51:48.230Z,23.00
2019-04-19T13:54:16.766Z,23.30
2019-04-19T13:56:47.278Z,23.20
2019-04-19T13:59:16.019Z,23.40
2019-04-19T14:01:44.530Z,23.60
2019-04-19T14:04:13.479Z,23.60
2019-04-19T14:06:42.392Z,23.90
2019-04-19T14:09:13.436Z,23.70
2019-04-19T14:11:42.881Z,23.80
2019-04-19T14:14:12.083Z,23.90
2019-04-19T14:16:41.841Z,23.70
2019-04-19T14:19:11.779Z,23.80
2019-04-19T14:21:40.556Z,24.00
2019-04-19T14:24:09.304Z,23.90
2019-04-19T14:26:45.061Z,24.00
2019-04-19T14:29:09.510Z,23.80
2019-04-19T14:31:38.231Z,24.10
2019-04-19T14:34:06.906Z,24.60
2019-04-19T14:36:36.165Z,24.40
2019-04-19T14:39:08.704Z,24.60
2019-04-19T14:41:37.989Z,24.30
2019-04-19T14:44:07.218Z,24.40
2019-04-19T14:46:36.707Z,24.50
2019-04-19T14:49:06.909Z,24.50
2019-04-19T14:51:39.003Z,24.80
2019-04-19T14:54:06.859Z,24.50
2019-04-19T14:56:37.008Z,24.60
2019-04-19T14:59:05.997Z,24.50
2019-04-19T15:01:37.036Z,24.70
2019-04-19T15:04:10.752Z,24.60
2019-04-19T15:06:39.739Z,24.90
2019-04-19T15:09:08.291Z,24.80
2019-04-19T15:11:36.800Z,24.80
2019-04-19T15:14:06.093Z,24.90
2019-04-19T15:16:37.808Z,24.70
2019-04-19T15:19:05.028Z,25.00
2019-04-19T15:21:34.329Z,25.00
2019-04-19T15:24:02.871Z,25.00
2019-04-19T15:26:31.301Z,24.70
2019-04-19T15:29:00.843Z,24.60
2019-04-19T15:31:30.243Z,24.70
2019-04-19T15:33:58.819Z,24.60
2019-04-19T15:36:27.991Z,24.50
2019-04-19T15:38:57.716Z,25.00
2019-04-19T15:41:26.330Z,24.80
2019-04-19T15:43:54.821Z,24.60
2019-04-19T15:46:23.879Z,24.60
2019-04-19T15:48:55.623Z,24.70
2019-04-19T15:51:30.058Z,24.90
2019-04-19T15:53:53.540Z,24.90
2019-04-19T15:56:24.364Z,24.80
2019-04-19T15:58:52.993Z,24.60
2019-04-19T16:01:39.805Z,24.60
2019-04-19T16:04:08.383Z,24.60
2019-04-19T16:06:38.468Z,24.20
2019-04-19T16:09:25.195Z,24.40
2019-04-19T16:11:56.470Z,24.50
2019-04-19T16:14:25.872Z,24.40
2019-04-19T16:16:55.352Z,24.40
2019-04-19T16:19:59.699Z,24.40
2019-04-19T16:22:28.231Z,24.50
2019-04-19T16:24:56.997Z,24.40
2019-04-19T16:27:25.589Z,24.40
2019-04-19T16:30:03.490Z,24.50
2019-04-19T16:32:32.853Z,24.60
2019-04-19T16:35:01.760Z,24.60
2019-04-19T16:37:30.745Z,24.30
2019-04-19T16:40:00.102Z,24.20
2019-04-19T16:42:29.409Z,24.20
2019-04-19T16:44:57.920Z,24.10
2019-04-19T16:47:27.069Z,24.00
2019-04-19T16:49:56.420Z,23.90
2019-04-19T16:52:24.965Z,23.80
2019-04-19T16:54:55.174Z,23.90
2019-04-19T16:57:29.152Z,23.90
2019-04-19T16:59:53.720Z,23.90
2019-04-19T17:02:22.756Z,23.80
2019-04-19T17:04:52.626Z,23.60
2019-04-19T17:07:21.083Z,23.70
2019-04-19T17:09:50.161Z,23.60
2019-04-19T17:12:18.880Z,23.70
2019-04-19T17:14:48.985Z,23.60
2019-04-19T17:17:22.688Z,23.40
2019-04-19T17:19:53.019Z,23.30
2019-04-19T17:22:26.328Z,23.30
2019-04-19T17:24:53.224Z,23.10
2019-04-19T17:27:27.198Z,23.10
2019-04-19T17:29:52.345Z,23.30
2019-04-19T17:32:21.198Z,23.20
2019-04-19T17:34:50.010Z,23.00
2019-04-19T17:37:18.553Z,23.00
2019-04-19T17:39:46.980Z,22.80
2019-04-19T17:42:16.600Z,22.70
2019-04-19T17:44:45.263Z,22.50
2019-04-19T17:47:17.047Z,22.50
2019-04-19T17:49:46.482Z,22.40
2019-04-19T17:52:23.095Z,22.20
2019-04-19T17:55:04.927Z,21.90
2019-04-19T17:57:21.101Z,21.90
2019-04-19T17:59:50.307Z,21.90
2019-04-19T18:02:19.125Z,21.60
2019-04-19T18:04:48.206Z,21.60
2019-04-19T18:07:16.814Z,21.60
2019-04-19T18:09:48.622Z,21.50
2019-04-19T18:12:15.424Z,21.40
2019-04-19T18:14:43.838Z,21.30
2019-04-19T18:17:12.530Z,21.10
2019-04-19T18:19:43.775Z,21.00
2019-04-19T18:22:20.954Z,21.00
2019-04-19T18:24:47.726Z,21.00
2019-04-19T18:27:18.270Z,20.90
2019-04-19T18:29:44.121Z,20.80
2019-04-19T18:32:14.372Z,20.70
2019-04-19T18:34:47.170Z,20.60
2019-04-19T18:37:40.937Z,20.50
2019-04-19T18:40:11.046Z,20.50
2019-04-19T18:42:51.092Z,20.30
2019-04-19T18:45:16.952Z,20.30
2019-04-19T18:47:52.796Z,20.10
2019-04-19T18:50:22.415Z,20.00
2019-04-19T18:52:58.457Z,19.90
2019-04-19T18:55:29.618Z,19.80
2019-04-19T18:57:51.847Z,19.70
2019-04-19T19:00:21.928Z,19.60
2019-04-19T19:02:55.467Z,19.50
2019-04-19T19:05:21.513Z,19.50
2019-04-19T19:07:57.209Z,19.40
2019-04-19T19:10:25.903Z,19.40
2019-04-19T19:12:51.364Z,19.30
2019-04-19T19:15:24.225Z,19.40
2019-04-19T19:17:55.723Z,19.30
2019-04-19T19:20:26.006Z,19.30
2019-04-19T19:23:06.203Z,19.40
2019-04-19T19:25:35.192Z,19.50
2019-04-19T19:27:55.791Z,19.40
2019-04-19T19:30:24.860Z,19.40
2019-04-19T19:33:00.229Z,19.30
2019-04-19T19:35:26.665Z,19.30
2019-04-19T19:37:54.724Z,19.30
2019-04-19T19:40:32.997Z,19.20
2019-04-19T19:43:15.534Z,19.20
2019-04-19T19:45:38.663Z,19.00
2019-04-19T19:48:13.216Z,19.00
2019-04-19T19:50:58.937Z,18.80
2019-04-19T19:53:37.429Z,18.90
2019-04-19T19:56:05.415Z,18.80
2019-04-19T19:58:19.867Z,18.70
2019-04-19T20:01:22.407Z,18.50
2019-04-19T20:03:41.793Z,18.50
2019-04-19T20:06:13.691Z,18.40
2019-04-19T20:08:39.789Z,18.30
2019-04-19T20:11:11.284Z,18.20
2019-04-19T20:13:44.001Z,18.00
2019-04-19T20:16:14.329Z,18.10
2019-04-19T20:18:39.611Z,18.10
2019-04-19T20:21:10.724Z,18.00
2019-04-19T20:23:54.190Z,17.80
2019-04-19T20:26:25.421Z,17.90
2019-04-19T20:28:47.662Z,17.90
2019-04-19T20:31:25.084Z,17.60
2019-04-19T20:33:54.640Z,17.60
2019-04-19T20:36:18.950Z,17.60
2019-04-19T20:38:53.521Z,17.40
2019-04-19T20:41:18.569Z,17.50
2019-04-19T20:43:59.484Z,17.60
2019-04-19T20:46:21.878Z,17.60
2019-04-19T20:48:54.094Z,17.40
2019-04-19T20:51:35.326Z,17.30
2019-04-19T20:54:10.239Z,17.30
2019-04-19T20:56:48.079Z,17.30
2019-04-19T20:58:57.942Z,17.30
2019-04-19T21:01:25.208Z,17.20
2019-04-19T21:03:58.457Z,17.10
2019-04-19T21:06:30.650Z,16.90
2019-04-19T21:08:56.616Z,16.70
2019-04-19T21:11:28.285Z,16.80
2019-04-19T21:13:59.940Z,16.60
2019-04-19T21:16:27.289Z,16.60
2019-04-19T21:19:00.687Z,16.50
2019-04-19T21:21:27.044Z,16.40
2019-04-19T21:24:01.434Z,16.50
2019-04-19T21:26:31.253Z,16.50
2019-04-19T21:28:57.562Z,16.30
2019-04-19T21:31:34.124Z,16.30
2019-04-19T21:33:59.873Z,16.40
2019-04-19T21:36:34.808Z,16.10
2019-04-19T21:39:01.101Z,15.90
2019-04-19T21:41:31.709Z,15.90
2019-04-19T21:43:57.122Z,15.90
2019-04-19T21:46:29.143Z,16.00
2019-04-19T21:48:56.954Z,15.80
2019-04-19T21:51:29.814Z,15.50
2019-04-19T21:53:56.691Z,15.50
2019-04-19T21:56:25.648Z,15.40
2019-04-19T21:58:57.455Z,15.30
2019-04-19T22:01:25.890Z,15.30
2019-04-19T22:04:02.187Z,15.50
2019-04-19T22:06:28.592Z,15.20
2019-04-19T22:08:59.252Z,15.00
2019-04-19T22:11:26.627Z,15.00
2019-04-19T22:13:55.575Z,15.10
2019-04-19T22:16:32.249Z,15.10
2019-04-19T22:18:56.023Z,15.00
2019-04-19T22:21:30.241Z,15.30
2019-04-19T22:23:58.428Z,14.90
2019-04-19T22:26:31.180Z,14.70
2019-04-19T22:28:57.638Z,14.80
2019-04-19T22:31:31.016Z,14.60
2019-04-19T22:33:56.744Z,14.70
2019-04-19T22:36:25.742Z,14.50
2019-04-19T22:38:58.524Z,14.60
2019-04-19T22:41:26.804Z,14.50
2019-04-19T22:43:54.646Z,14.70
2019-04-19T22:46:23.618Z,14.70
2019-04-19T22:48:59.087Z,14.70
2019-04-19T22:51:22.608Z,14.60
2019-04-19T22:53:52.558Z,14.50
2019-04-19T22:56:30.900Z,14.50
2019-04-19T22:58:51.657Z,14.60
2019-04-19T23:01:41.196Z,14.50
2019-04-19T23:04:15.090Z,14.60
2019-04-19T23:06:39.068Z,14.70
2019-04-19T23:09:10.679Z,14.80
2019-04-19T23:11:37.622Z,14.90
2019-04-19T23:14:07.321Z,14.60
2019-04-19T23:16:43.590Z,14.40
2019-04-19T23:19:09.388Z,14.30
2019-04-19T23:21:37.212Z,14.20
2019-04-19T23:24:11.547Z,14.40
2019-04-19T23:26:54.172Z,14.30
2019-04-19T23:29:06.547Z,14.00
2019-04-19T23:31:42.115Z,14.00
2019-04-19T23:34:08.207Z,13.90
2019-04-19T23:36:37.542Z,14.10
2019-04-19T23:39:11.020Z,14.00
2019-04-19T23:41:37.217Z,13.80
2019-04-19T23:44:11.255Z,13.70
2019-04-19T23:46:37.394Z,13.70
2019-04-19T23:49:10.372Z,13.40
2019-04-19T23:51:36.954Z,13.40
2019-04-19T23:54:17.678Z,13.20
2019-04-19T23:56:58.551Z,13.30
2019-04-19T23:59:15.387Z,13.30
